sensor_id;sensor_type;location;lat;lon;timestamp;P1;durP1;ratioP1;P2;durP2;ratioP2
52438;SDS011;38359;53.150;6.504;2023-02-28T00:01:03;31.13;;;10.80;;
52438;SDS011;38359;53.150;6.504;2023-02-28T00:11:28;16.25;;;5.75;;
52438;SDS011;38359;53.150;6.504;2023-02-28T00:21:54;24.20;;;6.30;;
52438;SDS011;38359;53.150;6.504;2023-02-28T00:32:20;18.63;;;5.88;;
52438;SDS011;38359;53.150;6.504;2023-02-28T00:42:46;20.65;;;5.50;;
52438;SDS011;38359;53.150;6.504;2023-02-28T00:53:11;12.43;;;5.63;;
52438;SDS011;38359;53.150;6.504;2023-02-28T01:03:37;17.23;;;5.50;;
52438;SDS011;38359;53.150;6.504;2023-02-28T01:14:04;21.98;;;5.43;;
52438;SDS011;38359;53.150;6.504;2023-02-28T01:24:30;17.27;;;5.20;;
52438;SDS011;38359;53.150;6.504;2023-02-28T01:34:58;19.77;;;5.90;;
52438;SDS011;38359;53.150;6.504;2023-02-28T01:45:30;17.48;;;5.50;;
52438;SDS011;38359;53.150;6.504;2023-02-28T01:55:57;27.98;;;6.65;;
52438;SDS011;38359;53.150;6.504;2023-02-28T02:06:56;19.05;;;5.57;;
52438;SDS011;38359;53.150;6.504;2023-02-28T02:17:18;21.77;;;6.07;;
52438;SDS011;38359;53.150;6.504;2023-02-28T02:39:09;28.83;;;7.00;;
52438;SDS011;38359;53.150;6.504;2023-02-28T02:50:05;20.38;;;6.75;;
52438;SDS011;38359;53.150;6.504;2023-02-28T03:00:39;22.55;;;6.47;;
52438;SDS011;38359;53.150;6.504;2023-02-28T03:11:12;17.30;;;6.23;;
52438;SDS011;38359;53.150;6.504;2023-02-28T03:43:25;28.38;;;11.50;;
52438;SDS011;38359;53.150;6.504;2023-02-28T03:53:58;26.42;;;10.35;;
52438;SDS011;38359;53.150;6.504;2023-02-28T04:04:30;21.73;;;10.70;;
52438;SDS011;38359;53.150;6.504;2023-02-28T04:14:56;23.35;;;10.80;;
52438;SDS011;38359;53.150;6.504;2023-02-28T04:25:22;17.17;;;9.07;;
52438;SDS011;38359;53.150;6.504;2023-02-28T04:35:48;18.60;;;8.60;;
52438;SDS011;38359;53.150;6.504;2023-02-28T04:46:26;18.52;;;9.48;;
52438;SDS011;38359;53.150;6.504;2023-02-28T04:56:53;18.30;;;9.18;;
52438;SDS011;38359;53.150;6.504;2023-02-28T05:07:20;20.88;;;9.32;;
52438;SDS011;38359;53.150;6.504;2023-02-28T05:17:46;19.55;;;9.50;;
52438;SDS011;38359;53.150;6.504;2023-02-28T05:28:12;27.52;;;10.70;;
52438;SDS011;38359;53.150;6.504;2023-02-28T05:38:37;18.50;;;10.18;;
52438;SDS011;38359;53.150;6.504;2023-02-28T05:49:04;23.52;;;11.68;;
52438;SDS011;38359;53.150;6.504;2023-02-28T05:59:29;23.17;;;10.75;;
52438;SDS011;38359;53.150;6.504;2023-02-28T06:09:55;21.85;;;11.88;;
52438;SDS011;38359;53.150;6.504;2023-02-28T06:20:21;21.63;;;12.43;;
52438;SDS011;38359;53.150;6.504;2023-02-28T06:30:48;31.88;;;16.70;;
52438;SDS011;38359;53.150;6.504;2023-02-28T06:41:14;27.05;;;15.80;;
52438;SDS011;38359;53.150;6.504;2023-02-28T06:51:41;28.88;;;16.33;;
52438;SDS011;38359;53.150;6.504;2023-02-28T07:02:10;37.30;;;16.15;;
52438;SDS011;38359;53.150;6.504;2023-02-28T07:12:35;36.55;;;17.15;;
52438;SDS011;38359;53.150;6.504;2023-02-28T07:23:02;29.02;;;15.95;;
52438;SDS011;38359;53.150;6.504;2023-02-28T07:33:27;29.48;;;15.07;;
52438;SDS011;38359;53.150;6.504;2023-02-28T07:43:53;31.35;;;14.30;;
52438;SDS011;38359;53.150;6.504;2023-02-28T07:54:20;29.98;;;15.00;;
52438;SDS011;38359;53.150;6.504;2023-02-28T08:04:46;32.22;;;17.02;;
52438;SDS011;38359;53.150;6.504;2023-02-28T08:15:16;28.73;;;14.80;;
52438;SDS011;38359;53.150;6.504;2023-02-28T08:25:42;25.08;;;14.57;;
52438;SDS011;38359;53.150;6.504;2023-02-28T08:36:08;31.10;;;15.77;;
52438;SDS011;38359;53.150;6.504;2023-02-28T08:46:34;29.85;;;15.25;;
52438;SDS011;38359;53.150;6.504;2023-02-28T08:57:00;28.17;;;15.88;;
52438;SDS011;38359;53.150;6.504;2023-02-28T09:07:26;31.17;;;16.45;;
52438;SDS011;38359;53.150;6.504;2023-02-28T09:17:51;31.52;;;16.30;;
52438;SDS011;38359;53.150;6.504;2023-02-28T09:28:18;30.88;;;15.63;;
52438;SDS011;38359;53.150;6.504;2023-02-28T09:38:44;24.48;;;13.65;;
52438;SDS011;38359;53.150;6.504;2023-02-28T09:49:12;28.48;;;14.27;;
52438;SDS011;38359;53.150;6.504;2023-02-28T09:59:47;23.38;;;12.40;;
52438;SDS011;38359;53.150;6.504;2023-02-28T10:21:15;24.17;;;10.90;;
52438;SDS011;38359;53.150;6.504;2023-02-28T10:31:58;21.33;;;8.55;;
52438;SDS011;38359;53.150;6.504;2023-02-28T10:42:28;12.98;;;4.93;;
52438;SDS011;38359;53.150;6.504;2023-02-28T10:53:13;11.48;;;6.78;;
52438;SDS011;38359;53.150;6.504;2023-02-28T11:03:57;17.75;;;5.97;;
52438;SDS011;38359;53.150;6.504;2023-02-28T11:14:25;11.65;;;5.25;;
52438;SDS011;38359;53.150;6.504;2023-02-28T11:24:55;9.57;;;4.75;;
52438;SDS011;38359;53.150;6.504;2023-02-28T11:35:32;9.40;;;4.10;;
52438;SDS011;38359;53.150;6.504;2023-02-28T11:56:48;9.85;;;4.38;;
52438;SDS011;38359;53.150;6.504;2023-02-28T12:07:29;8.05;;;4.20;;
52438;SDS011;38359;53.150;6.504;2023-02-28T12:18:21;10.00;;;4.80;;
52438;SDS011;38359;53.150;6.504;2023-02-28T12:29:23;9.75;;;4.65;;
52438;SDS011;38359;53.150;6.504;2023-02-28T12:40:00;9.60;;;4.88;;
52438;SDS011;38359;53.150;6.504;2023-02-28T12:50:36;9.52;;;4.35;;
52438;SDS011;38359;53.150;6.504;2023-02-28T13:12:19;11.95;;;5.10;;
52438;SDS011;38359;53.150;6.504;2023-02-28T13:22:48;13.43;;;5.40;;
52438;SDS011;38359;53.150;6.504;2023-02-28T13:33:21;12.77;;;6.32;;
52438;SDS011;38359;53.150;6.504;2023-02-28T13:44:06;9.23;;;5.85;;
52438;SDS011;38359;53.150;6.504;2023-02-28T13:54:57;11.18;;;5.55;;
52438;SDS011;38359;53.150;6.504;2023-02-28T14:05:46;10.50;;;5.50;;
52438;SDS011;38359;53.150;6.504;2023-02-28T14:16:13;8.55;;;5.28;;
52438;SDS011;38359;53.150;6.504;2023-02-28T14:37:28;10.90;;;5.18;;
52438;SDS011;38359;53.150;6.504;2023-02-28T14:47:59;10.18;;;5.55;;
52438;SDS011;38359;53.150;6.504;2023-02-28T14:58:30;10.77;;;5.35;;
52438;SDS011;38359;53.150;6.504;2023-02-28T15:09:14;10.10;;;5.57;;
52438;SDS011;38359;53.150;6.504;2023-02-28T15:19:43;8.93;;;5.35;;
52438;SDS011;38359;53.150;6.504;2023-02-28T15:30:15;8.10;;;5.32;;
52438;SDS011;38359;53.150;6.504;2023-02-28T15:40:49;8.03;;;4.67;;
52438;SDS011;38359;53.150;6.504;2023-02-28T15:51:33;10.30;;;5.85;;
52438;SDS011;38359;53.150;6.504;2023-02-28T16:02:13;9.13;;;6.00;;
52438;SDS011;38359;53.150;6.504;2023-02-28T16:12:52;13.63;;;6.72;;
52438;SDS011;38359;53.150;6.504;2023-02-28T16:23:21;10.23;;;5.75;;
52438;SDS011;38359;53.150;6.504;2023-02-28T16:33:47;14.70;;;6.43;;
52438;SDS011;38359;53.150;6.504;2023-02-28T16:54:57;12.00;;;7.00;;
52438;SDS011;38359;53.150;6.504;2023-02-28T17:05:25;13.57;;;8.23;;
52438;SDS011;38359;53.150;6.504;2023-02-28T17:15:54;28.27;;;13.48;;
52438;SDS011;38359;53.150;6.504;2023-02-28T17:26:20;13.90;;;7.45;;
52438;SDS011;38359;53.150;6.504;2023-02-28T17:36:50;14.95;;;7.05;;
52438;SDS011;38359;53.150;6.504;2023-02-28T17:47:17;15.73;;;7.68;;
52438;SDS011;38359;53.150;6.504;2023-02-28T17:57:42;14.40;;;7.57;;
52438;SDS011;38359;53.150;6.504;2023-02-28T18:08:09;19.17;;;10.25;;
52438;SDS011;38359;53.150;6.504;2023-02-28T18:18:37;18.88;;;10.05;;
52438;SDS011;38359;53.150;6.504;2023-02-28T18:29:03;15.98;;;8.73;;
52438;SDS011;38359;53.150;6.504;2023-02-28T18:39:30;17.90;;;9.95;;
52438;SDS011;38359;53.150;6.504;2023-02-28T18:49:56;17.60;;;10.07;;
52438;SDS011;38359;53.150;6.504;2023-02-28T19:00:22;19.48;;;11.15;;
52438;SDS011;38359;53.150;6.504;2023-02-28T19:10:49;23.05;;;11.75;;
52438;SDS011;38359;53.150;6.504;2023-02-28T19:21:16;22.38;;;13.85;;
52438;SDS011;38359;53.150;6.504;2023-02-28T19:31:44;22.08;;;12.38;;
52438;SDS011;38359;53.150;6.504;2023-02-28T19:42:16;27.88;;;15.52;;
52438;SDS011;38359;53.150;6.504;2023-02-28T19:52:42;27.23;;;14.40;;
52438;SDS011;38359;53.150;6.504;2023-02-28T20:03:08;28.05;;;15.02;;
52438;SDS011;38359;53.150;6.504;2023-02-28T20:13:34;28.90;;;16.27;;
52438;SDS011;38359;53.150;6.504;2023-02-28T20:24:00;26.10;;;15.95;;
52438;SDS011;38359;53.150;6.504;2023-02-28T20:34:26;23.17;;;14.27;;
52438;SDS011;38359;53.150;6.504;2023-02-28T20:44:53;22.80;;;14.30;;
52438;SDS011;38359;53.150;6.504;2023-02-28T20:55:19;40.00;;;19.83;;
52438;SDS011;38359;53.150;6.504;2023-02-28T21:05:46;33.15;;;15.95;;
52438;SDS011;38359;53.150;6.504;2023-02-28T21:16:13;31.58;;;16.75;;
52438;SDS011;38359;53.150;6.504;2023-02-28T21:26:42;31.30;;;18.17;;
52438;SDS011;38359;53.150;6.504;2023-02-28T21:37:09;33.10;;;17.30;;
52438;SDS011;38359;53.150;6.504;2023-02-28T21:47:35;33.83;;;18.05;;
52438;SDS011;38359;53.150;6.504;2023-02-28T21:58:01;28.65;;;17.55;;
52438;SDS011;38359;53.150;6.504;2023-02-28T22:08:26;39.70;;;19.88;;
52438;SDS011;38359;53.150;6.504;2023-02-28T22:18:52;35.03;;;17.95;;
52438;SDS011;38359;53.150;6.504;2023-02-28T22:29:19;31.67;;;17.65;;
52438;SDS011;38359;53.150;6.504;2023-02-28T22:39:45;36.25;;;19.88;;
52438;SDS011;38359;53.150;6.504;2023-02-28T22:50:11;37.53;;;19.73;;
52438;SDS011;38359;53.150;6.504;2023-02-28T23:00:37;42.55;;;21.42;;
52438;SDS011;38359;53.150;6.504;2023-02-28T23:11:03;37.75;;;21.27;;
52438;SDS011;38359;53.150;6.504;2023-02-28T23:21:29;42.47;;;21.85;;
52438;SDS011;38359;53.150;6.504;2023-02-28T23:31:55;41.58;;;21.58;;
52438;SDS011;38359;53.150;6.504;2023-02-28T23:42:21;38.38;;;20.38;;
52438;SDS011;38359;53.150;6.504;2023-02-28T23:52:47;39.42;;;22.10;;
